createdAt,value
2023-01-13T00:01:28.411Z,97916.31
2023-01-13T00:03:56.897Z,97912.84
2023-01-13T00:06:25.719Z,97909.38
2023-01-13T00:08:54.057Z,97914.27
2023-01-13T00:11:22.215Z,97912.44
2023-01-13T00:13:49.807Z,97925.11
2023-01-13T00:16:19.174Z,97919.25
2023-01-13T00:18:48.763Z,97925.73
2023-01-13T00:21:20.205Z,97922.27
2023-01-13T00:23:48.086Z,97921.22
2023-01-13T00:26:19.695Z,97918.29
2023-01-13T00:28:48.581Z,97915.64
2023-01-13T00:31:20.556Z,97921.28
2023-01-13T00:33:50.565Z,97927.16
2023-01-13T00:36:20.493Z,97923.11
2023-01-13T00:38:49.177Z,97920.92
2023-01-13T00:41:20.140Z,97917.36
2023-01-13T00:43:48.509Z,97912.44
2023-01-13T00:46:20.473Z,97916.34
2023-01-13T00:48:49.459Z,97908.98
2023-01-13T00:51:20.343Z,97918.62
2023-01-13T00:53:51.140Z,97914.76
2023-01-13T00:56:39.256Z,97918.52
2023-01-13T00:58:56.234Z,97917.20
2023-01-13T01:01:25.344Z,97920.45
2023-01-13T01:03:54.737Z,97921.05
2023-01-13T01:06:25.965Z,97917.89
2023-01-13T01:08:55.441Z,97913.09
2023-01-13T01:11:31.302Z,97917.44
2023-01-13T01:14:02.376Z,97915.59
2023-01-13T01:16:32.282Z,97919.63
2023-01-13T01:19:01.249Z,97908.34
2023-01-13T01:21:29.609Z,97910.25
2023-01-13T01:24:00.845Z,97910.53
2023-01-13T01:26:30.600Z,97904.63
2023-01-13T01:28:59.012Z,97900.64
2023-01-13T01:31:33.770Z,97902.25
2023-01-13T01:34:01.976Z,97897.43
2023-01-13T01:36:29.991Z,97892.89
2023-01-13T01:38:59.389Z,97893.45
2023-01-13T01:41:31.218Z,97891.34
2023-01-13T01:44:29.173Z,97894.88
2023-01-13T01:46:57.449Z,97894.09
2023-01-13T01:49:32.373Z,97899.22
2023-01-13T01:52:20.236Z,97895.18
2023-01-13T01:54:58.960Z,97895.68
2023-01-13T01:57:34.574Z,97898.91
2023-01-13T02:00:03.961Z,97892.68
2023-01-13T02:02:33.818Z,97895.05
2023-01-13T02:05:01.961Z,97888.55
2023-01-13T02:07:33.099Z,97895.45
2023-01-13T02:10:05.534Z,97894.89
2023-01-13T02:12:33.759Z,97891.41
2023-01-13T02:15:11.984Z,97889.01
2023-01-13T02:18:07.180Z,97883.03
2023-01-13T02:20:59.909Z,97881.12
2023-01-13T02:24:10.158Z,97882.20
2023-01-13T02:27:18.433Z,97881.12
2023-01-13T02:30:28.893Z,97880.34
2023-01-13T02:33:07.506Z,97876.36
2023-01-13T02:35:52.155Z,97873.20
2023-01-13T02:38:25.232Z,97876.75
2023-01-13T02:41:29.140Z,97871.14
2023-01-13T02:44:06.614Z,97872.51
2023-01-13T02:46:55.993Z,97864.50
2023-01-13T02:49:40.241Z,97874.77
2023-01-13T02:52:13.428Z,97872.89
2023-01-13T02:54:45.970Z,97873.73
2023-01-13T02:57:17.017Z,97879.11
2023-01-13T02:59:44.847Z,97878.03
2023-01-13T03:02:17.125Z,97882.11
2023-01-13T03:04:56.050Z,97886.14
2023-01-13T03:08:14.805Z,97884.50
2023-01-13T03:11:05.164Z,97880.70
2023-01-13T03:13:56.760Z,97887.36
2023-01-13T03:16:38.998Z,97883.27
2023-01-13T03:19:27.151Z,97885.39
2023-01-13T03:22:02.937Z,97888.56
2023-01-13T03:24:38.518Z,97892.28
2023-01-13T03:27:33.955Z,97893.06
2023-01-13T03:30:13.080Z,97898.67
2023-01-13T03:32:45.824Z,97894.89
2023-01-13T03:35:27.633Z,97887.34
2023-01-13T03:38:00.868Z,97893.76
2023-01-13T03:40:36.112Z,97894.55
2023-01-13T03:43:27.678Z,97889.44
2023-01-13T03:46:00.371Z,97886.50
2023-01-13T03:48:30.876Z,97886.25
2023-01-13T03:51:03.999Z,97884.92
2023-01-13T03:53:45.875Z,97893.55
2023-01-13T03:56:21.786Z,97884.97
2023-01-13T03:58:52.451Z,97889.33
2023-01-13T04:01:34.259Z,97893.92
2023-01-13T04:04:16.462Z,97892.34
2023-01-13T04:06:52.447Z,97887.83
2023-01-13T04:09:43.583Z,97891.62
2023-01-13T04:12:19.423Z,97892.18
2023-01-13T04:14:47.596Z,97897.03
2023-01-13T04:17:16.404Z,97901.06
2023-01-13T04:19:44.176Z,97900.56
2023-01-13T04:22:11.940Z,97901.12
2023-01-13T04:24:39.526Z,97900.33
2023-01-13T04:27:07.189Z,97910.78
2023-01-13T04:29:35.411Z,97907.53
2023-01-13T04:32:03.194Z,97913.38
2023-01-13T04:34:30.757Z,97908.47
2023-01-13T04:36:58.205Z,97910.00
2023-01-13T04:39:25.857Z,97904.54
2023-01-13T04:41:59.353Z,97903.92
2023-01-13T04:44:27.052Z,97909.53
2023-01-13T04:46:54.639Z,97908.97
2023-01-13T04:49:22.188Z,97903.81
2023-01-13T04:51:50.534Z,97908.34
2023-01-13T04:54:18.040Z,97916.42
2023-01-13T04:56:45.672Z,97914.56
2023-01-13T04:59:13.847Z,97912.38
2023-01-13T05:01:41.812Z,97913.48
2023-01-13T05:04:09.870Z,97914.58
2023-01-13T05:06:37.559Z,97926.16
2023-01-13T05:09:05.100Z,97917.06
2023-01-13T05:11:51.793Z,97917.38
2023-01-13T05:14:37.803Z,97919.03
2023-01-13T05:17:05.495Z,97915.06
2023-01-13T05:19:36.342Z,97927.48
2023-01-13T05:22:23.687Z,97932.09
2023-01-13T05:25:09.882Z,97930.23
2023-01-13T05:27:37.653Z,97927.86
2023-01-13T05:30:06.770Z,97924.92
2023-01-13T05:32:34.679Z,97927.39
2023-01-13T05:35:03.574Z,97937.65
2023-01-13T05:37:31.365Z,97940.34
2023-01-13T05:40:17.343Z,97947.08
2023-01-13T05:43:03.462Z,97945.44
2023-01-13T05:45:31.757Z,97943.30
2023-01-13T05:47:59.425Z,97941.94
2023-01-13T05:50:27.253Z,97943.22
2023-01-13T05:52:54.849Z,97944.00
2023-01-13T05:55:22.487Z,97947.72
2023-01-13T05:57:50.107Z,97943.67
2023-01-13T06:00:19.740Z,97942.28
2023-01-13T06:02:47.386Z,97946.26
2023-01-13T06:05:15.639Z,97951.14
2023-01-13T06:07:43.297Z,97957.08
2023-01-13T06:10:11.627Z,97959.52
2023-01-13T06:12:39.040Z,97963.02
2023-01-13T06:15:07.551Z,97958.48
2023-01-13T06:17:35.309Z,97961.73
2023-01-13T06:20:03.280Z,97962.83
2023-01-13T06:22:32.379Z,97963.12
2023-01-13T06:24:59.966Z,97965.53
2023-01-13T06:27:29.878Z,97966.08
2023-01-13T06:29:57.873Z,97963.94
2023-01-13T06:32:29.441Z,97969.61
2023-01-13T06:35:05.287Z,97972.84
2023-01-13T06:37:33.474Z,97974.45
2023-01-13T06:40:03.921Z,97973.95
2023-01-13T06:42:54.423Z,97971.53
2023-01-13T06:45:25.265Z,97975.86
2023-01-13T06:47:54.234Z,97975.08
2023-01-13T06:50:21.939Z,97977.77
2023-01-13T06:52:49.323Z,97973.17
2023-01-13T06:55:17.175Z,97974.50
2023-01-13T06:57:56.846Z,97974.20
2023-01-13T07:00:26.279Z,97977.09
2023-01-13T07:02:54.111Z,97979.75
2023-01-13T07:05:22.212Z,97984.28
2023-01-13T07:07:49.677Z,97971.81
2023-01-13T07:10:19.520Z,97982.55
2023-01-13T07:13:05.423Z,97973.06
2023-01-13T07:15:34.291Z,97974.34
2023-01-13T07:18:03.058Z,97977.82
2023-01-13T07:20:31.216Z,97976.98
2023-01-13T07:22:58.973Z,97976.70
2023-01-13T07:25:26.575Z,97982.89
2023-01-13T07:27:56.847Z,97980.75
2023-01-13T07:30:24.403Z,97978.32
2023-01-13T07:32:51.963Z,97985.88
2023-01-13T07:35:21.379Z,97983.20
2023-01-13T07:37:49.078Z,97987.49
2023-01-13T07:40:17.155Z,97984.55
2023-01-13T07:43:02.999Z,97992.62
2023-01-13T07:45:30.935Z,97989.41
2023-01-13T07:47:58.661Z,97996.44
2023-01-13T07:50:26.381Z,97991.38
2023-01-13T07:52:57.938Z,97992.22
2023-01-13T07:55:25.624Z,97985.23
2023-01-13T07:57:53.360Z,97986.30
2023-01-13T08:00:22.570Z,97989.03
2023-01-13T08:02:50.088Z,97991.48
2023-01-13T08:05:17.955Z,97993.09
2023-01-13T08:07:45.449Z,97987.70
2023-01-13T08:10:13.193Z,97989.59
2023-01-13T08:12:59.351Z,97988.20
2023-01-13T08:15:28.968Z,97988.43
2023-01-13T08:17:58.843Z,97995.94
2023-01-13T08:20:27.011Z,97995.33
2023-01-13T08:22:59.007Z,97992.33
2023-01-13T08:25:28.845Z,97986.61
2023-01-13T08:27:59.190Z,97989.77
2023-01-13T08:30:27.845Z,97988.86
2023-01-13T08:32:55.503Z,97996.34
2023-01-13T08:35:23.421Z,97994.70
2023-01-13T08:37:51.606Z,97992.26
2023-01-13T08:40:20.376Z,97986.88
2023-01-13T08:42:48.821Z,97982.59
2023-01-13T08:45:16.560Z,97986.69
2023-01-13T08:47:44.403Z,97989.16
2023-01-13T08:50:12.593Z,97994.30
2023-01-13T08:52:41.163Z,97993.28
2023-01-13T08:55:09.629Z,97989.00
2023-01-13T08:57:37.251Z,97988.77
2023-01-13T09:00:08.231Z,97987.74
2023-01-13T09:02:38.055Z,97992.88
2023-01-13T09:05:07.087Z,97987.54
2023-01-13T09:07:38.168Z,97993.44
2023-01-13T09:10:08.063Z,97990.00
2023-01-13T09:12:54.886Z,97990.81
2023-01-13T09:15:22.681Z,97985.18
2023-01-13T09:17:50.366Z,97997.03
2023-01-13T09:20:18.523Z,97986.30
2023-01-13T09:22:46.166Z,97985.80
2023-01-13T09:25:14.013Z,97978.83
2023-01-13T09:27:41.594Z,97980.67
2023-01-13T09:30:11.313Z,97979.58
2023-01-13T09:32:38.859Z,97978.22
2023-01-13T09:35:08.363Z,97969.03
2023-01-13T09:37:39.809Z,97966.28
2023-01-13T09:40:13.355Z,97968.16
2023-01-13T09:43:14.922Z,97968.09
2023-01-13T09:45:59.865Z,97965.63
2023-01-13T09:48:39.256Z,97962.38
2023-01-13T09:51:21.102Z,97959.68
2023-01-13T09:53:55.416Z,97954.24
2023-01-13T09:56:24.435Z,97955.57
2023-01-13T09:58:52.380Z,97952.02
2023-01-13T10:01:42.196Z,97953.61
2023-01-13T10:04:15.306Z,97947.66
2023-01-13T10:06:48.014Z,97948.43
2023-01-13T10:09:21.073Z,97950.03
2023-01-13T10:12:08.819Z,97952.42
2023-01-13T10:14:52.676Z,97953.49
2023-01-13T10:17:35.684Z,97955.31
2023-01-13T10:20:28.473Z,97950.73
2023-01-13T10:23:22.491Z,97949.63
2023-01-13T10:26:13.772Z,97949.88
2023-01-13T10:28:41.217Z,97941.00
2023-01-13T10:31:12.864Z,97945.84
2023-01-13T10:33:40.474Z,97946.14
2023-01-13T10:36:22.585Z,97950.43
2023-01-13T10:38:50.943Z,97940.75
2023-01-13T10:41:26.049Z,97946.69
2023-01-13T10:44:04.323Z,97942.95
2023-01-13T10:46:35.495Z,97943.45
2023-01-13T10:49:20.324Z,97939.88
2023-01-13T10:51:48.720Z,97945.19
2023-01-13T10:54:24.489Z,97943.58
2023-01-13T10:57:23.102Z,97944.30
2023-01-13T10:59:52.433Z,97932.38
2023-01-13T11:02:32.275Z,97930.09
2023-01-13T11:05:05.250Z,97931.88
2023-01-13T11:07:43.173Z,97925.58
2023-01-13T11:10:27.360Z,97927.37
2023-01-13T11:13:11.629Z,97923.23
2023-01-13T11:15:54.962Z,97921.55
2023-01-13T11:18:54.250Z,97916.14
2023-01-13T11:21:29.862Z,97913.59
2023-01-13T11:24:18.072Z,97917.09
2023-01-13T11:26:57.140Z,97914.94
2023-01-13T11:29:39.375Z,97911.45
2023-01-13T11:32:14.694Z,97911.45
2023-01-13T11:34:47.276Z,97910.94
2023-01-13T11:37:28.586Z,97906.89
2023-01-13T11:40:11.300Z,97904.53
2023-01-13T11:42:56.083Z,97904.25
2023-01-13T11:45:43.092Z,97905.51
2023-01-13T11:48:15.639Z,97898.46
2023-01-13T11:51:12.819Z,97895.43
2023-01-13T11:54:13.040Z,97898.64
2023-01-13T11:57:02.839Z,97892.15
2023-01-13T11:59:52.621Z,97900.14
2023-01-13T12:03:05.680Z,97888.28
2023-01-13T12:05:40.636Z,97888.53
2023-01-13T12:09:01.166Z,97890.13
2023-01-13T12:12:16.907Z,97884.14
2023-01-13T12:15:23.697Z,97878.99
2023-01-13T12:18:20.640Z,97885.98
2023-01-13T12:21:00.958Z,97886.47
2023-01-13T12:23:48.704Z,97882.56
2023-01-13T12:26:16.891Z,97873.43
2023-01-13T12:28:52.455Z,97874.98
2023-01-13T12:31:22.415Z,97878.34
2023-01-13T12:34:14.192Z,97877.28
2023-01-13T12:37:06.843Z,97877.23
2023-01-13T12:40:11.539Z,97877.94
2023-01-13T12:43:26.344Z,97871.70
2023-01-13T12:45:53.619Z,97873.50
2023-01-13T12:48:54.691Z,97874.84
2023-01-13T12:51:32.185Z,97874.54
2023-01-13T12:54:05.336Z,97872.43
2023-01-13T12:56:44.019Z,97872.43
2023-01-13T12:59:22.219Z,97864.61
2023-01-13T13:02:15.029Z,97864.05
2023-01-13T13:04:51.291Z,97862.94
2023-01-13T13:07:36.342Z,97863.08
2023-01-13T13:10:27.381Z,97861.45
2023-01-13T13:13:19.741Z,97867.13
2023-01-13T13:15:50.554Z,97868.13
2023-01-13T13:18:26.727Z,97870.06
2023-01-13T13:21:11.067Z,97871.78
2023-01-13T13:23:50.118Z,97867.42
2023-01-13T13:26:37.411Z,97870.36
2023-01-13T13:29:27.516Z,97868.02
2023-01-13T13:32:27.407Z,97868.42
2023-01-13T13:35:27.394Z,97864.53
2023-01-13T13:38:40.218Z,97869.70
2023-01-13T13:41:34.404Z,97873.59
2023-01-13T13:44:35.918Z,97878.16
2023-01-13T13:47:05.915Z,97869.34
2023-01-13T13:49:46.074Z,97871.00
2023-01-13T13:52:31.340Z,97879.88
2023-01-13T13:55:04.306Z,97878.67
2023-01-13T13:57:39.837Z,97872.03
2023-01-13T14:00:22.541Z,97881.52
2023-01-13T14:03:01.072Z,97883.30
2023-01-13T14:05:36.814Z,97885.27
2023-01-13T14:08:16.853Z,97890.97
2023-01-13T14:10:45.948Z,97891.01
2023-01-13T14:13:28.985Z,97889.41
2023-01-13T14:16:05.987Z,97890.52
2023-01-13T14:18:46.956Z,97887.02
2023-01-13T14:21:23.286Z,97892.97
2023-01-13T14:23:54.616Z,97885.47
2023-01-13T14:26:29.997Z,97892.80
2023-01-13T14:29:00.888Z,97888.27
2023-01-13T14:31:29.410Z,97890.20
2023-01-13T14:34:01.105Z,97886.16
2023-01-13T14:36:38.424Z,97894.15
2023-01-13T14:39:11.454Z,97890.31
2023-01-13T14:41:46.764Z,97897.27
2023-01-13T14:44:35.616Z,97895.67
2023-01-13T14:47:21.782Z,97894.39
2023-01-13T14:50:19.329Z,97892.03
2023-01-13T14:52:56.609Z,97889.99
2023-01-13T14:55:37.955Z,97886.53
2023-01-13T14:58:27.170Z,97891.23
2023-01-13T15:01:29.041Z,97893.47
2023-01-13T15:04:25.725Z,97899.20
2023-01-13T15:06:56.784Z,97891.72
2023-01-13T15:09:29.254Z,97892.06
2023-01-13T15:11:58.221Z,97896.44
2023-01-13T15:14:31.089Z,97891.66
2023-01-13T15:16:58.621Z,97890.04
2023-01-13T15:19:26.188Z,97892.00
2023-01-13T15:21:53.582Z,97900.08
2023-01-13T15:24:21.194Z,97893.34
2023-01-13T15:26:48.691Z,97894.94
2023-01-13T15:29:16.371Z,97891.66
2023-01-13T15:31:44.341Z,97899.14
2023-01-13T15:34:12.003Z,97901.50
2023-01-13T15:36:40.090Z,97898.46
2023-01-13T15:39:10.071Z,97903.27
2023-01-13T15:41:56.500Z,97906.48
2023-01-13T15:44:42.746Z,97903.80
2023-01-13T15:47:10.575Z,97907.87
2023-01-13T15:49:42.360Z,97913.56
2023-01-13T15:52:23.218Z,97908.20
2023-01-13T15:54:52.139Z,97905.05
2023-01-13T15:57:26.984Z,97911.36
2023-01-13T16:00:01.755Z,97908.50
2023-01-13T16:02:31.058Z,97909.08
2023-01-13T16:04:58.493Z,97906.97
2023-01-13T16:07:26.297Z,97904.60
2023-01-13T16:09:54.417Z,97908.43
2023-01-13T16:12:22.066Z,97910.66
2023-01-13T16:14:49.722Z,97913.68
2023-01-13T16:17:21.655Z,97912.66
2023-01-13T16:19:50.171Z,97912.74
2023-01-13T16:22:18.250Z,97911.73
2023-01-13T16:24:46.017Z,97914.75
2023-01-13T16:27:20.241Z,97916.42
2023-01-13T16:29:49.364Z,97912.70
2023-01-13T16:32:17.174Z,97902.26
2023-01-13T16:34:46.261Z,97907.72
2023-01-13T16:37:25.061Z,97911.01
2023-01-13T16:39:54.341Z,97912.20
2023-01-13T16:42:22.129Z,97911.25
2023-01-13T16:44:50.167Z,97900.82
2023-01-13T16:47:18.593Z,97897.41
2023-01-13T16:49:47.255Z,97900.66
2023-01-13T16:52:15.009Z,97893.69
2023-01-13T16:54:42.653Z,97893.44
2023-01-13T16:57:13.641Z,97895.81
2023-01-13T16:59:41.441Z,97893.62
2023-01-13T17:02:14.774Z,97899.78
2023-01-13T17:04:42.990Z,97896.52
2023-01-13T17:07:15.229Z,97886.50
2023-01-13T17:09:43.012Z,97894.85
2023-01-13T17:12:11.231Z,97890.28
2023-01-13T17:14:39.580Z,97891.70
2023-01-13T17:17:15.308Z,97890.42
2023-01-13T17:19:43.157Z,97888.63
2023-01-13T17:22:10.710Z,97897.31
2023-01-13T17:24:38.385Z,97887.43
2023-01-13T17:27:06.409Z,97895.59
2023-01-13T17:29:34.020Z,97906.97
2023-01-13T17:32:01.962Z,97899.78
2023-01-13T17:34:29.578Z,97896.90
2023-01-13T17:36:57.545Z,97896.67
2023-01-13T17:39:26.525Z,97902.92
2023-01-13T17:41:55.556Z,97902.19
2023-01-13T17:44:23.515Z,97896.59
2023-01-13T17:46:51.238Z,97897.45
2023-01-13T17:49:21.345Z,97895.91
2023-01-13T17:51:51.029Z,97904.28
2023-01-13T17:54:19.516Z,97902.45
2023-01-13T17:56:47.255Z,97898.23
2023-01-13T17:59:18.085Z,97900.17
2023-01-13T18:01:46.479Z,97898.63
2023-01-13T18:04:17.281Z,97902.41
2023-01-13T18:06:45.569Z,97903.80
2023-01-13T18:09:13.249Z,97897.13
2023-01-13T18:11:41.771Z,97903.84
2023-01-13T18:14:09.739Z,97897.17
2023-01-13T18:16:37.435Z,97898.55
2023-01-13T18:19:24.104Z,97907.44
2023-01-13T18:22:10.344Z,97903.99
2023-01-13T18:24:56.029Z,97904.03
2023-01-13T18:27:28.715Z,97897.61
2023-01-13T18:29:59.107Z,97909.72
2023-01-13T18:32:33.277Z,97911.06
2023-01-13T18:35:06.975Z,97902.75
2023-01-13T18:37:35.641Z,97900.33
2023-01-13T18:40:05.350Z,97901.67
2023-01-13T18:42:51.558Z,97901.67
2023-01-13T18:45:23.773Z,97904.35
2023-01-13T18:47:53.049Z,97899.27
2023-01-13T18:50:21.816Z,97906.23
2023-01-13T18:52:50.176Z,97897.93
2023-01-13T18:55:18.305Z,97906.49
2023-01-13T18:57:46.313Z,97905.70
2023-01-13T19:00:19.045Z,97905.70
2023-01-13T19:02:47.921Z,97900.07
2023-01-13T19:05:15.998Z,97905.44
2023-01-13T19:07:45.825Z,97902.50
2023-01-13T19:10:13.801Z,97898.50
2023-01-13T19:12:41.815Z,97904.95
2023-01-13T19:15:10.770Z,97904.44
2023-01-13T19:17:38.683Z,97901.75
2023-01-13T19:20:07.763Z,97902.58
2023-01-13T19:22:35.399Z,97903.13
2023-01-13T19:25:04.914Z,97899.61
2023-01-13T19:27:32.433Z,97895.34
2023-01-13T19:30:00.755Z,97907.66
2023-01-13T19:32:30.334Z,97900.95
2023-01-13T19:34:59.379Z,97900.44
2023-01-13T19:37:32.575Z,97902.86
2023-01-13T19:40:00.180Z,97899.15
2023-01-13T19:42:46.475Z,97906.13
2023-01-13T19:45:30.247Z,97906.14
2023-01-13T19:48:04.173Z,97903.22
2023-01-13T19:50:38.133Z,97909.91
2023-01-13T19:53:07.112Z,97909.94
2023-01-13T19:55:34.774Z,97902.42
2023-01-13T19:58:03.485Z,97907.55
2023-01-13T20:00:31.126Z,97906.20
2023-01-13T20:03:00.739Z,97904.60
2023-01-13T20:05:28.847Z,97904.60
2023-01-13T20:07:56.378Z,97905.13
2023-01-13T20:10:24.561Z,97903.50
2023-01-13T20:12:52.112Z,97900.55
2023-01-13T20:15:19.778Z,97901.61
2023-01-13T20:17:47.720Z,97898.41
2023-01-13T20:20:16.261Z,97898.38
2023-01-13T20:22:43.835Z,97896.77
2023-01-13T20:25:13.951Z,97891.38
2023-01-13T20:27:42.151Z,97893.78
2023-01-13T20:30:12.951Z,97891.64
2023-01-13T20:32:43.275Z,97894.86
2023-01-13T20:35:11.373Z,97894.61
2023-01-13T20:37:41.661Z,97894.08
2023-01-13T20:40:14.072Z,97898.39
2023-01-13T20:42:43.740Z,97893.55
2023-01-13T20:45:17.227Z,97901.88
2023-01-13T20:47:45.426Z,97898.13
2023-01-13T20:50:14.197Z,97898.69
2023-01-13T20:52:41.815Z,97896.28
2023-01-13T20:55:11.149Z,97896.83
2023-01-13T20:57:40.250Z,97901.39
2023-01-13T21:00:10.345Z,97900.88
2023-01-13T21:02:40.301Z,97902.20
2023-01-13T21:05:09.313Z,97899.27
2023-01-13T21:07:36.640Z,97900.33
2023-01-13T21:10:05.281Z,97904.61
2023-01-13T21:12:51.322Z,97900.06
2023-01-13T21:15:21.311Z,97900.60
2023-01-13T21:18:09.588Z,97905.67
2023-01-13T21:20:38.877Z,97900.84
2023-01-13T21:23:07.812Z,97904.34
2023-01-13T21:25:37.323Z,97909.13
2023-01-13T21:28:05.849Z,97909.95
2023-01-13T21:30:34.521Z,97901.64
2023-01-13T21:33:03.509Z,97901.09
2023-01-13T21:35:31.204Z,97905.11
2023-01-13T21:37:58.868Z,97906.70
2023-01-13T21:40:26.690Z,97906.42
2023-01-13T21:43:12.586Z,97915.26
2023-01-13T21:45:58.726Z,97911.77
2023-01-13T21:48:26.627Z,97909.91
2023-01-13T21:50:54.098Z,97909.89
2023-01-13T21:53:21.674Z,97912.56
2023-01-13T21:55:52.443Z,97909.35
2023-01-13T21:58:19.971Z,97906.97
2023-01-13T22:00:49.092Z,97912.32
2023-01-13T22:03:19.471Z,97902.68
2023-01-13T22:05:55.018Z,97904.00
2023-01-13T22:08:22.681Z,97906.13
2023-01-13T22:11:00.211Z,97909.62
2023-01-13T22:13:47.998Z,97911.52
2023-01-13T22:16:16.001Z,97908.83
2023-01-13T22:18:43.759Z,97907.50
2023-01-13T22:21:11.358Z,97912.06
2023-01-13T22:23:38.850Z,97911.55
2023-01-13T22:26:07.875Z,97904.86
2023-01-13T22:28:43.511Z,97903.52
2023-01-13T22:31:17.615Z,97906.99
2023-01-13T22:33:46.648Z,97907.80
2023-01-13T22:36:15.346Z,97906.72
2023-01-13T22:38:42.863Z,97900.29
2023-01-13T22:41:10.743Z,97904.59
2023-01-13T22:43:38.988Z,97904.58
2023-01-13T22:46:12.175Z,97898.69
2023-01-13T22:48:41.208Z,97886.65
2023-01-13T22:51:12.565Z,97894.38
2023-01-13T22:53:41.364Z,97897.61
2023-01-13T22:56:15.879Z,97893.86
2023-01-13T22:58:44.376Z,97899.17
2023-01-13T23:01:16.999Z,97897.84
2023-01-13T23:03:47.397Z,97903.44
2023-01-13T23:06:17.744Z,97899.96
2023-01-13T23:08:46.646Z,97905.06
2023-01-13T23:11:16.781Z,97904.78
2023-01-13T23:13:45.277Z,97909.04
2023-01-13T23:16:17.616Z,97903.44
2023-01-13T23:18:47.350Z,97902.88
2023-01-13T23:21:25.955Z,97896.99
2023-01-13T23:23:53.856Z,97899.66
2023-01-13T23:26:22.150Z,97900.45
2023-01-13T23:28:50.132Z,97902.85
2023-01-13T23:31:21.039Z,97903.41
2023-01-13T23:33:49.085Z,97894.84
2023-01-13T23:36:23.332Z,97895.66
2023-01-13T23:38:52.528Z,97892.20
2023-01-13T23:41:23.298Z,97891.66
2023-01-13T23:43:57.442Z,97896.77
2023-01-13T23:46:27.476Z,97900.75
2023-01-13T23:48:55.164Z,97899.44
2023-01-13T23:51:24.726Z,97899.72
2023-01-13T23:53:52.790Z,97902.67
2023-01-13T23:56:24.113Z,97901.33
2023-01-13T23:58:52.715Z,97906.16
